RYR53M LGAV-LCPH
Flight info
| Callsign | RYR53M |
|---|---|
| Flight time | 1h 18m |
| Altitude | 39000 |
| Route | KEA UL52 ASTIS UM601 EVENO M601 DASNI M32 TOBAL |
| Aircraft | B38M/M-SDE1FGHILORVWXY/HB1 |
Departure
| Time | 2026-04-20 12:35 |
|---|---|
| Airport | Athens Eleftherios Venizelos International Airport (LGAV) |
Arrival
| Time | 2026-04-20 13:54 |
|---|---|
| Airport | Paphos International Airport (LCPH) |
| Time | Latitude | Longitude | Altitude | Speed | Heading |
|---|---|---|---|---|---|
| 2026-04-20 12:18 | 37.94404 | 23.95710 | 305 ft | 0 kts | 37° |
| 2026-04-20 12:27 | 37.94399 | 23.95706 | 303 ft | 2 kts | 37° |
| 2026-04-20 12:27 | 37.94386 | 23.95693 | 305 ft | 2 kts | 39° |
| 2026-04-20 12:27 | 37.94374 | 23.95680 | 305 ft | 2 kts | 46° |
| 2026-04-20 12:27 | 37.94368 | 23.95662 | 304 ft | 2 kts | 117° |
| 2026-04-20 12:28 | 37.94370 | 23.95657 | 304 ft | 0 kts | 125° |
| 2026-04-20 12:31 | 37.94361 | 23.95674 | 303 ft | 5 kts | 125° |
| 2026-04-20 12:31 | 37.94325 | 23.95741 | 302 ft | 14 kts | 109° |
| 2026-04-20 12:32 | 37.94367 | 23.95866 | 302 ft | 17 kts | 102° |
| 2026-04-20 12:32 | 37.94418 | 23.96010 | 301 ft | 25 kts | 37° |
| 2026-04-20 12:32 | 37.94575 | 23.96159 | 303 ft | 31 kts | 39° |
| 2026-04-20 12:32 | 37.94763 | 23.96332 | 302 ft | 35 kts | 40° |
| 2026-04-20 12:33 | 37.94921 | 23.96487 | 303 ft | 29 kts | 37° |
| 2026-04-20 12:33 | 37.95084 | 23.96639 | 305 ft | 30 kts | 37° |
| 2026-04-20 12:33 | 37.95256 | 23.96806 | 307 ft | 32 kts | 39° |
| 2026-04-20 12:33 | 37.95374 | 23.96918 | 306 ft | 16 kts | 47° |
| 2026-04-20 12:34 | 37.95342 | 23.97020 | 310 ft | 15 kts | 168° |
| 2026-04-20 12:34 | 37.95246 | 23.97034 | 311 ft | 14 kts | 172° |
| 2026-04-20 12:34 | 37.95159 | 23.96992 | 312 ft | 15 kts | 216° |
| 2026-04-20 12:34 | 37.95061 | 23.96898 | 310 ft | 24 kts | 217° |
| 2026-04-20 12:35 | 37.94793 | 23.96644 | 303 ft | 82 kts | 217° |
| 2026-04-20 12:35 | 37.94161 | 23.96045 | 289 ft | 142 kts | 216° |
| 2026-04-20 12:35 | 37.93273 | 23.95246 | 615 ft | 163 kts | 213° |
| 2026-04-20 12:35 | 37.92287 | 23.94423 | 1208 ft | 171 kts | 214° |
| 2026-04-20 12:36 | 37.91337 | 23.93594 | 2121 ft | 168 kts | 216° |
| 2026-04-20 12:36 | 37.90304 | 23.92732 | 2730 ft | 189 kts | 216° |
| 2026-04-20 12:36 | 37.89130 | 23.91787 | 3286 ft | 211 kts | 214° |
| 2026-04-20 12:36 | 37.87728 | 23.90939 | 3822 ft | 234 kts | 206° |
| 2026-04-20 12:37 | 37.86200 | 23.90068 | 4544 ft | 243 kts | 208° |
| 2026-04-20 12:37 | 37.84666 | 23.89129 | 5415 ft | 250 kts | 210° |
| 2026-04-20 12:37 | 37.83119 | 23.88134 | 6511 ft | 249 kts | 210° |
| 2026-04-20 12:37 | 37.81558 | 23.87102 | 7441 ft | 258 kts | 211° |
| 2026-04-20 12:38 | 37.79960 | 23.86030 | 8435 ft | 261 kts | 211° |
| 2026-04-20 12:38 | 37.78312 | 23.84999 | 9350 ft | 272 kts | 201° |
| 2026-04-20 12:38 | 37.76367 | 23.84723 | 9975 ft | 294 kts | 176° |
| 2026-04-20 12:38 | 37.74400 | 23.85498 | 10606 ft | 312 kts | 150° |
| 2026-04-20 12:39 | 37.71774 | 23.90123 | 11711 ft | 346 kts | 117° |
| 2026-04-20 12:39 | 37.70497 | 23.92754 | 12420 ft | 356 kts | 122° |
| 2026-04-20 12:39 | 37.69193 | 23.95439 | 13293 ft | 361 kts | 121° |
| 2026-04-20 12:40 | 37.67888 | 23.98186 | 14102 ft | 368 kts | 120° |
| 2026-04-20 12:40 | 37.66569 | 24.00989 | 14881 ft | 373 kts | 120° |
| 2026-04-20 12:40 | 37.65244 | 24.03829 | 15709 ft | 377 kts | 120° |
| 2026-04-20 12:40 | 37.63904 | 24.06706 | 16466 ft | 382 kts | 120° |
| 2026-04-20 12:41 | 37.62551 | 24.09613 | 17237 ft | 387 kts | 120° |
| 2026-04-20 12:41 | 37.61181 | 24.12555 | 17992 ft | 391 kts | 120° |
| 2026-04-20 12:41 | 37.59795 | 24.15532 | 18659 ft | 396 kts | 120° |
| 2026-04-20 12:41 | 37.58391 | 24.18544 | 19298 ft | 400 kts | 120° |
| 2026-04-20 12:42 | 37.56971 | 24.21587 | 19925 ft | 404 kts | 120° |
| 2026-04-20 12:42 | 37.55539 | 24.24655 | 20547 ft | 408 kts | 120° |
| 2026-04-20 12:42 | 37.54088 | 24.27760 | 21165 ft | 412 kts | 120° |
| 2026-04-20 12:42 | 37.52626 | 24.30886 | 21765 ft | 417 kts | 120° |
| 2026-04-20 12:43 | 37.51145 | 24.34049 | 22378 ft | 420 kts | 120° |
| 2026-04-20 12:43 | 37.49774 | 24.37320 | 22949 ft | 424 kts | 109° |
| 2026-04-20 12:43 | 37.48889 | 24.40874 | 23555 ft | 427 kts | 107° |
| 2026-04-20 12:43 | 37.47951 | 24.44446 | 23999 ft | 432 kts | 108° |
| 2026-04-20 12:44 | 37.46994 | 24.48037 | 24488 ft | 435 kts | 108° |
| 2026-04-20 12:44 | 37.46025 | 24.51661 | 24972 ft | 438 kts | 108° |
| 2026-04-20 12:44 | 37.45047 | 24.55312 | 25429 ft | 442 kts | 108° |
| 2026-04-20 12:44 | 37.44073 | 24.58941 | 25887 ft | 445 kts | 108° |
| 2026-04-20 12:45 | 37.43064 | 24.62694 | 26346 ft | 449 kts | 108° |
| 2026-04-20 12:45 | 37.42073 | 24.66376 | 26782 ft | 452 kts | 108° |
| 2026-04-20 12:45 | 37.41059 | 24.70138 | 27217 ft | 455 kts | 108° |
| 2026-04-20 12:45 | 37.40036 | 24.73929 | 27649 ft | 459 kts | 108° |
| 2026-04-20 12:46 | 37.39006 | 24.77740 | 28074 ft | 462 kts | 108° |
| 2026-04-20 12:46 | 37.37965 | 24.81584 | 28490 ft | 465 kts | 108° |
| 2026-04-20 12:46 | 37.36918 | 24.85449 | 28899 ft | 469 kts | 108° |
| 2026-04-20 12:46 | 37.35858 | 24.89351 | 29317 ft | 472 kts | 108° |
| 2026-04-20 12:47 | 37.34794 | 24.93264 | 29705 ft | 475 kts | 108° |
| 2026-04-20 12:47 | 37.33722 | 24.97202 | 30078 ft | 478 kts | 108° |
| 2026-04-20 12:47 | 37.32639 | 25.01172 | 30411 ft | 481 kts | 108° |
| 2026-04-20 12:47 | 37.31551 | 25.05156 | 30760 ft | 483 kts | 108° |
| 2026-04-20 12:48 | 37.30456 | 25.09161 | 31104 ft | 485 kts | 108° |
| 2026-04-20 12:48 | 37.29355 | 25.13178 | 31407 ft | 489 kts | 108° |
| 2026-04-20 12:48 | 37.28245 | 25.17226 | 31727 ft | 491 kts | 108° |
| 2026-04-20 12:48 | 37.27143 | 25.21233 | 32042 ft | 494 kts | 108° |
| 2026-04-20 12:49 | 37.26004 | 25.25374 | 32350 ft | 496 kts | 108° |
| 2026-04-20 12:49 | 37.24885 | 25.29432 | 32650 ft | 499 kts | 108° |
| 2026-04-20 12:49 | 37.23745 | 25.33562 | 32943 ft | 502 kts | 109° |
| 2026-04-20 12:49 | 37.22597 | 25.37714 | 33249 ft | 504 kts | 109° |
| 2026-04-20 12:50 | 37.21443 | 25.41880 | 33571 ft | 506 kts | 109° |
| 2026-04-20 12:50 | 37.20286 | 25.46051 | 33971 ft | 506 kts | 109° |
| 2026-04-20 12:50 | 37.19126 | 25.50224 | 34315 ft | 506 kts | 109° |
| 2026-04-20 12:50 | 37.17967 | 25.54391 | 34659 ft | 506 kts | 109° |
| 2026-04-20 12:51 | 37.16807 | 25.58557 | 35040 ft | 506 kts | 109° |
| 2026-04-20 12:51 | 37.15646 | 25.62717 | 35362 ft | 506 kts | 109° |
| 2026-04-20 12:51 | 37.14496 | 25.66826 | 35713 ft | 505 kts | 109° |
| 2026-04-20 12:51 | 37.13335 | 25.70977 | 36086 ft | 504 kts | 109° |
| 2026-04-20 12:52 | 37.12174 | 25.75118 | 36406 ft | 504 kts | 109° |
| 2026-04-20 12:52 | 37.11012 | 25.79256 | 36718 ft | 503 kts | 109° |
| 2026-04-20 12:52 | 37.09847 | 25.83399 | 37023 ft | 503 kts | 109° |
| 2026-04-20 12:52 | 37.08681 | 25.87537 | 37316 ft | 503 kts | 109° |
| 2026-04-20 12:53 | 37.07514 | 25.91673 | 37605 ft | 503 kts | 110° |
| 2026-04-20 12:53 | 37.06346 | 25.95806 | 37888 ft | 503 kts | 110° |
| 2026-04-20 12:53 | 37.05175 | 25.99941 | 38142 ft | 503 kts | 110° |
| 2026-04-20 12:53 | 37.04004 | 26.04075 | 38357 ft | 504 kts | 110° |
| 2026-04-20 12:54 | 37.02828 | 26.08219 | 38584 ft | 505 kts | 110° |
| 2026-04-20 12:54 | 37.01651 | 26.12358 | 38803 ft | 504 kts | 110° |
| 2026-04-20 12:54 | 37.00473 | 26.16492 | 38976 ft | 505 kts | 110° |
| 2026-04-20 12:55 | 36.98125 | 26.24719 | 39028 ft | 504 kts | 110° |
| 2026-04-20 12:55 | 36.95765 | 26.32965 | 39028 ft | 502 kts | 110° |
| 2026-04-20 12:55 | 36.94605 | 26.37010 | 39029 ft | 485 kts | 110° |
| 2026-04-20 12:56 | 36.93483 | 26.40917 | 39033 ft | 469 kts | 110° |
| 2026-04-20 12:56 | 36.91296 | 26.48512 | 39019 ft | 461 kts | 110° |
| 2026-04-20 12:57 | 36.89122 | 26.56041 | 39023 ft | 461 kts | 110° |
| 2026-04-20 12:57 | 36.86939 | 26.63579 | 39020 ft | 461 kts | 110° |
| 2026-04-20 12:58 | 36.84750 | 26.71119 | 39015 ft | 461 kts | 111° |
| 2026-04-20 12:58 | 36.82559 | 26.78642 | 39010 ft | 462 kts | 111° |
| 2026-04-20 12:59 | 36.80360 | 26.86176 | 39003 ft | 462 kts | 111° |
| 2026-04-20 12:59 | 36.78157 | 26.93703 | 38997 ft | 462 kts | 111° |
| 2026-04-20 13:00 | 36.75948 | 27.01229 | 38991 ft | 462 kts | 111° |
| 2026-04-20 13:00 | 36.73746 | 27.08709 | 38991 ft | 460 kts | 111° |
| 2026-04-20 13:01 | 36.71565 | 27.16099 | 38988 ft | 449 kts | 111° |
| 2026-04-20 13:01 | 36.69408 | 27.23387 | 38985 ft | 447 kts | 111° |
| 2026-04-20 13:02 | 36.67253 | 27.30651 | 38985 ft | 447 kts | 111° |
| 2026-04-20 13:02 | 36.65093 | 27.37912 | 38976 ft | 447 kts | 111° |
| 2026-04-20 13:03 | 36.62944 | 27.45118 | 38976 ft | 447 kts | 111° |
| 2026-04-20 13:03 | 36.60777 | 27.52365 | 38961 ft | 446 kts | 111° |
| 2026-04-20 13:04 | 36.58606 | 27.59609 | 38958 ft | 447 kts | 111° |
| 2026-04-20 13:04 | 36.56429 | 27.66853 | 38958 ft | 446 kts | 112° |
| 2026-04-20 13:05 | 36.54250 | 27.74084 | 38946 ft | 446 kts | 111° |
| 2026-04-20 13:05 | 36.52063 | 27.81324 | 38943 ft | 446 kts | 112° |
| 2026-04-20 13:06 | 36.49875 | 27.88547 | 38937 ft | 446 kts | 112° |
| 2026-04-20 13:06 | 36.47683 | 27.95765 | 38938 ft | 446 kts | 112° |
| 2026-04-20 13:07 | 36.45498 | 28.02942 | 38939 ft | 446 kts | 112° |
| 2026-04-20 13:07 | 36.43295 | 28.10160 | 38936 ft | 446 kts | 112° |
| 2026-04-20 13:08 | 36.41093 | 28.17358 | 38934 ft | 445 kts | 112° |
| 2026-04-20 13:08 | 36.38890 | 28.24542 | 38924 ft | 445 kts | 112° |
| 2026-04-20 13:09 | 36.36683 | 28.31717 | 38924 ft | 445 kts | 112° |
| 2026-04-20 13:09 | 36.34484 | 28.38849 | 38919 ft | 445 kts | 112° |
| 2026-04-20 13:10 | 36.32261 | 28.46042 | 38934 ft | 446 kts | 112° |
| 2026-04-20 13:10 | 36.30032 | 28.53237 | 38922 ft | 446 kts | 112° |
| 2026-04-20 13:11 | 36.27801 | 28.60421 | 38925 ft | 446 kts | 112° |
| 2026-04-20 13:11 | 36.25942 | 28.66391 | 38926 ft | 446 kts | 112° |
| 2026-04-20 13:12 | 36.23339 | 28.74732 | 38934 ft | 446 kts | 112° |
| 2026-04-20 13:12 | 36.21459 | 28.80739 | 38942 ft | 446 kts | 112° |
| 2026-04-20 13:13 | 36.19226 | 28.87860 | 38939 ft | 446 kts | 112° |
| 2026-04-20 13:13 | 36.16975 | 28.95020 | 38945 ft | 446 kts | 113° |
| 2026-04-20 13:14 | 36.14720 | 29.02178 | 38948 ft | 447 kts | 113° |
| 2026-04-20 13:14 | 36.12452 | 29.09355 | 38947 ft | 448 kts | 113° |
| 2026-04-20 13:15 | 36.10181 | 29.16528 | 38951 ft | 447 kts | 113° |
| 2026-04-20 13:15 | 36.07905 | 29.23696 | 38952 ft | 447 kts | 113° |
| 2026-04-20 13:16 | 36.05626 | 29.30858 | 38957 ft | 448 kts | 113° |
| 2026-04-20 13:16 | 36.03326 | 29.38038 | 38945 ft | 449 kts | 116° |
| 2026-04-20 13:17 | 36.00589 | 29.44928 | 38980 ft | 448 kts | 118° |
| 2026-04-20 13:17 | 35.97900 | 29.51811 | 38954 ft | 447 kts | 118° |
| 2026-04-20 13:18 | 35.95200 | 29.58745 | 38941 ft | 448 kts | 118° |
| 2026-04-20 13:18 | 35.92492 | 29.65692 | 38958 ft | 449 kts | 118° |
| 2026-04-20 13:19 | 35.89779 | 29.72633 | 38951 ft | 449 kts | 118° |
| 2026-04-20 13:19 | 35.87063 | 29.79571 | 38933 ft | 449 kts | 118° |
| 2026-04-20 13:20 | 35.84361 | 29.86457 | 38943 ft | 450 kts | 118° |
| 2026-04-20 13:20 | 35.81629 | 29.93407 | 38947 ft | 450 kts | 118° |
| 2026-04-20 13:21 | 35.78898 | 30.00335 | 38953 ft | 449 kts | 118° |
| 2026-04-20 13:21 | 35.76158 | 30.07275 | 38951 ft | 450 kts | 118° |
| 2026-04-20 13:22 | 35.73418 | 30.14196 | 38955 ft | 450 kts | 119° |
| 2026-04-20 13:22 | 35.70690 | 30.21075 | 38955 ft | 450 kts | 119° |
| 2026-04-20 13:23 | 35.67942 | 30.27990 | 38957 ft | 449 kts | 119° |
| 2026-04-20 13:23 | 35.65193 | 30.34891 | 38959 ft | 449 kts | 119° |
| 2026-04-20 13:24 | 35.62439 | 30.41789 | 38951 ft | 449 kts | 119° |
| 2026-04-20 13:24 | 35.59672 | 30.48706 | 38965 ft | 453 kts | 119° |
| 2026-04-20 13:25 | 35.56865 | 30.55709 | 38957 ft | 459 kts | 119° |
| 2026-04-20 13:25 | 35.54032 | 30.62761 | 38956 ft | 466 kts | 119° |
| 2026-04-20 13:26 | 35.51134 | 30.69960 | 38963 ft | 474 kts | 119° |
| 2026-04-20 13:26 | 35.48181 | 30.77278 | 38956 ft | 482 kts | 119° |
| 2026-04-20 13:27 | 35.45171 | 30.84721 | 38952 ft | 490 kts | 119° |
| 2026-04-20 13:27 | 35.42108 | 30.92279 | 38957 ft | 499 kts | 119° |
| 2026-04-20 13:28 | 35.39002 | 30.99924 | 38371 ft | 512 kts | 119° |
| 2026-04-20 13:28 | 35.37396 | 31.03872 | 37247 ft | 519 kts | 119° |
| 2026-04-20 13:28 | 35.35797 | 31.07797 | 36780 ft | 511 kts | 119° |
| 2026-04-20 13:28 | 35.34212 | 31.11682 | 36238 ft | 506 kts | 119° |
| 2026-04-20 13:29 | 35.32638 | 31.15535 | 35616 ft | 504 kts | 118° |
| 2026-04-20 13:29 | 35.31070 | 31.19372 | 34977 ft | 503 kts | 118° |
| 2026-04-20 13:29 | 35.29505 | 31.23197 | 34327 ft | 501 kts | 118° |
| 2026-04-20 13:29 | 35.27941 | 31.27011 | 33616 ft | 500 kts | 118° |
| 2026-04-20 13:30 | 35.26379 | 31.30818 | 32843 ft | 500 kts | 118° |
| 2026-04-20 13:30 | 35.24825 | 31.34600 | 32220 ft | 495 kts | 118° |
| 2026-04-20 13:30 | 35.23284 | 31.38348 | 31638 ft | 491 kts | 118° |
| 2026-04-20 13:30 | 35.21753 | 31.42067 | 31112 ft | 486 kts | 118° |
| 2026-04-20 13:31 | 35.20258 | 31.45694 | 30593 ft | 481 kts | 118° |
| 2026-04-20 13:31 | 35.18757 | 31.49332 | 30095 ft | 476 kts | 118° |
| 2026-04-20 13:31 | 35.17272 | 31.52928 | 29516 ft | 471 kts | 118° |
| 2026-04-20 13:31 | 35.15797 | 31.56494 | 28928 ft | 467 kts | 118° |
| 2026-04-20 13:32 | 35.14338 | 31.60020 | 28406 ft | 462 kts | 118° |
| 2026-04-20 13:32 | 35.12890 | 31.63513 | 27862 ft | 458 kts | 118° |
| 2026-04-20 13:32 | 35.11456 | 31.66970 | 27357 ft | 454 kts | 118° |
| 2026-04-20 13:32 | 35.10035 | 31.70393 | 26836 ft | 450 kts | 118° |
| 2026-04-20 13:33 | 35.08628 | 31.73778 | 26348 ft | 446 kts | 118° |
| 2026-04-20 13:33 | 35.07230 | 31.77137 | 25864 ft | 442 kts | 118° |
| 2026-04-20 13:33 | 35.05841 | 31.80472 | 25396 ft | 438 kts | 118° |
| 2026-04-20 13:33 | 35.04462 | 31.83780 | 24920 ft | 435 kts | 118° |
| 2026-04-20 13:34 | 35.03110 | 31.87019 | 24474 ft | 432 kts | 118° |
| 2026-04-20 13:34 | 35.01749 | 31.90277 | 24031 ft | 429 kts | 117° |
| 2026-04-20 13:34 | 35.00401 | 31.93501 | 23602 ft | 425 kts | 117° |
| 2026-04-20 13:34 | 34.99056 | 31.96714 | 23102 ft | 422 kts | 117° |
| 2026-04-20 13:35 | 34.97725 | 31.99894 | 22603 ft | 419 kts | 117° |
| 2026-04-20 13:35 | 34.96403 | 32.03046 | 22133 ft | 415 kts | 117° |
| 2026-04-20 13:35 | 34.95093 | 32.06165 | 21731 ft | 410 kts | 117° |
| 2026-04-20 13:35 | 34.93802 | 32.09241 | 21444 ft | 403 kts | 117° |
| 2026-04-20 13:36 | 34.92519 | 32.12241 | 21226 ft | 394 kts | 121° |
| 2026-04-20 13:36 | 34.90991 | 32.14963 | 21063 ft | 384 kts | 125° |
| 2026-04-20 13:36 | 34.89497 | 32.17607 | 20895 ft | 375 kts | 124° |
| 2026-04-20 13:36 | 34.88053 | 32.20198 | 20735 ft | 365 kts | 124° |
| 2026-04-20 13:37 | 34.86667 | 32.22703 | 20590 ft | 356 kts | 124° |
| 2026-04-20 13:37 | 34.85298 | 32.25186 | 20326 ft | 351 kts | 124° |
| 2026-04-20 13:37 | 34.83937 | 32.27658 | 19971 ft | 350 kts | 123° |
| 2026-04-20 13:37 | 34.82586 | 32.30110 | 19629 ft | 348 kts | 123° |
| 2026-04-20 13:38 | 34.81244 | 32.32548 | 19311 ft | 346 kts | 123° |
| 2026-04-20 13:38 | 34.79901 | 32.34965 | 18965 ft | 344 kts | 123° |
| 2026-04-20 13:38 | 34.78558 | 32.37372 | 18635 ft | 342 kts | 123° |
| 2026-04-20 13:38 | 34.77222 | 32.39767 | 18315 ft | 341 kts | 123° |
| 2026-04-20 13:39 | 34.75891 | 32.42151 | 17965 ft | 339 kts | 123° |
| 2026-04-20 13:39 | 34.74572 | 32.44513 | 17605 ft | 337 kts | 123° |
| 2026-04-20 13:39 | 34.73256 | 32.46867 | 17252 ft | 335 kts | 123° |
| 2026-04-20 13:39 | 34.71948 | 32.49207 | 16894 ft | 334 kts | 123° |
| 2026-04-20 13:40 | 34.70609 | 32.51490 | 16567 ft | 330 kts | 131° |
| 2026-04-20 13:40 | 34.68870 | 32.53275 | 15930 ft | 329 kts | 152° |
| 2026-04-20 13:40 | 34.66733 | 32.54189 | 15320 ft | 324 kts | 175° |
| 2026-04-20 13:40 | 34.64522 | 32.54082 | 14720 ft | 316 kts | 198° |
| 2026-04-20 13:41 | 34.62577 | 32.52974 | 14143 ft | 305 kts | 223° |
| 2026-04-20 13:41 | 34.61249 | 32.51104 | 13585 ft | 293 kts | 247° |
| 2026-04-20 13:41 | 34.60747 | 32.48772 | 12923 ft | 283 kts | 274° |
| 2026-04-20 13:41 | 34.61185 | 32.46493 | 12297 ft | 277 kts | 296° |
| 2026-04-20 13:42 | 34.62029 | 32.44364 | 11683 ft | 276 kts | 297° |
| 2026-04-20 13:42 | 34.63896 | 32.40363 | 10501 ft | 273 kts | 305° |
| 2026-04-20 13:42 | 34.64918 | 32.38427 | 9924 ft | 272 kts | 301° |
| 2026-04-20 13:43 | 34.66040 | 32.36597 | 9275 ft | 270 kts | 319° |
| 2026-04-20 13:43 | 34.67683 | 32.35523 | 8646 ft | 271 kts | 344° |
| 2026-04-20 13:43 | 34.69567 | 32.35442 | 8026 ft | 276 kts | 8° |
| 2026-04-20 13:43 | 34.71350 | 32.36338 | 7404 ft | 282 kts | 31° |
| 2026-04-20 13:44 | 34.72730 | 32.38058 | 6774 ft | 290 kts | 54° |
| 2026-04-20 13:44 | 34.73481 | 32.40347 | 6132 ft | 297 kts | 78° |
| 2026-04-20 13:44 | 34.73403 | 32.42863 | 5439 ft | 302 kts | 103° |
| 2026-04-20 13:44 | 34.72727 | 32.45285 | 4771 ft | 303 kts | 108° |
| 2026-04-20 13:45 | 34.72031 | 32.47673 | 4182 ft | 301 kts | 108° |
| 2026-04-20 13:45 | 34.71340 | 32.50001 | 4047 ft | 283 kts | 108° |
| 2026-04-20 13:45 | 34.70515 | 32.52059 | 4045 ft | 262 kts | 129° |
| 2026-04-20 13:45 | 34.69207 | 32.53469 | 4061 ft | 246 kts | 142° |
| 2026-04-20 13:46 | 34.67976 | 32.54906 | 4010 ft | 245 kts | 131° |
| 2026-04-20 13:46 | 34.66858 | 32.56467 | 4000 ft | 245 kts | 130° |
| 2026-04-20 13:46 | 34.65743 | 32.58043 | 3994 ft | 246 kts | 130° |
| 2026-04-20 13:46 | 34.64617 | 32.59632 | 3754 ft | 249 kts | 130° |
| 2026-04-20 13:47 | 34.63470 | 32.61237 | 3423 ft | 254 kts | 130° |
| 2026-04-20 13:47 | 34.62307 | 32.62873 | 3063 ft | 258 kts | 130° |
| 2026-04-20 13:47 | 34.61156 | 32.64522 | 2705 ft | 260 kts | 130° |
| 2026-04-20 13:47 | 34.60110 | 32.66281 | 2563 ft | 250 kts | 112° |
| 2026-04-20 13:48 | 34.59825 | 32.68259 | 2527 ft | 234 kts | 79° |
| 2026-04-20 13:48 | 34.60389 | 32.70042 | 2502 ft | 224 kts | 47° |
| 2026-04-20 13:48 | 34.61560 | 32.71185 | 2492 ft | 214 kts | 17° |
| 2026-04-20 13:48 | 34.62988 | 32.71418 | 2476 ft | 205 kts | 346° |
| 2026-04-20 13:49 | 34.64247 | 32.70710 | 2490 ft | 200 kts | 317° |
| 2026-04-20 13:49 | 34.65175 | 32.69440 | 2517 ft | 202 kts | 304° |
| 2026-04-20 13:49 | 34.65850 | 32.67993 | 2519 ft | 196 kts | 294° |
| 2026-04-20 13:49 | 34.66337 | 32.66498 | 2472 ft | 184 kts | 291° |
| 2026-04-20 13:50 | 34.66763 | 32.65097 | 2498 ft | 170 kts | 291° |
| 2026-04-20 13:50 | 34.67167 | 32.63763 | 2354 ft | 167 kts | 291° |
| 2026-04-20 13:50 | 34.67570 | 32.62439 | 2171 ft | 166 kts | 291° |
| 2026-04-20 13:50 | 34.67969 | 32.61129 | 1949 ft | 162 kts | 291° |
| 2026-04-20 13:51 | 34.68338 | 32.59910 | 1752 ft | 148 kts | 292° |
| 2026-04-20 13:51 | 34.68691 | 32.58750 | 1579 ft | 145 kts | 292° |
| 2026-04-20 13:51 | 34.69037 | 32.57622 | 1405 ft | 137 kts | 291° |
| 2026-04-20 13:51 | 34.69353 | 32.56578 | 1219 ft | 126 kts | 292° |
| 2026-04-20 13:52 | 34.69652 | 32.55594 | 1059 ft | 123 kts | 292° |
| 2026-04-20 13:52 | 34.69943 | 32.54620 | 890 ft | 123 kts | 290° |
| 2026-04-20 13:52 | 34.70235 | 32.53625 | 721 ft | 132 kts | 289° |
| 2026-04-20 13:52 | 34.70537 | 32.52584 | 545 ft | 124 kts | 293° |
| 2026-04-20 13:53 | 34.70853 | 32.51613 | 374 ft | 123 kts | 293° |
| 2026-04-20 13:53 | 34.71154 | 32.50639 | 219 ft | 122 kts | 292° |
| 2026-04-20 13:53 | 34.71446 | 32.49677 | 49 ft | 119 kts | 292° |
| 2026-04-20 13:53 | 34.71674 | 32.48935 | 39 ft | 59 kts | 290° |
| 2026-04-20 13:54 | 34.71782 | 32.48585 | 39 ft | 28 kts | 290° |
| 2026-04-20 13:54 | 34.71794 | 32.48415 | 40 ft | 17 kts | 212° |
| 2026-04-20 13:54 | 34.71701 | 32.48373 | 39 ft | 0 kts | 197° |
| 2026-04-20 13:54 | 34.71687 | 32.48367 | 39 ft | 6 kts | 200° |
| 2026-04-20 13:55 | 34.71609 | 32.48334 | 39 ft | 18 kts | 202° |
| 2026-04-20 13:55 | 34.71468 | 32.48272 | 40 ft | 15 kts | 197° |
| 2026-04-20 13:55 | 34.71396 | 32.48306 | 39 ft | 11 kts | 109° |
| 2026-04-20 13:55 | 34.71365 | 32.48409 | 37 ft | 15 kts | 111° |
| 2026-04-20 13:56 | 34.71352 | 32.48521 | 39 ft | 14 kts | 69° |
| 2026-04-20 13:56 | 34.71395 | 32.48637 | 38 ft | 15 kts | 65° |
| 2026-04-20 13:56 | 34.71401 | 32.48725 | 38 ft | 10 kts | 128° |
| 2026-04-20 13:56 | 34.71362 | 32.48753 | 38 ft | 10 kts | 158° |
| 2026-04-20 13:57 | 34.71329 | 32.48773 | 38 ft | 0 kts | 155° |